createdAt,value
2018-01-27T00:00:39.939Z,33.13
2018-01-27T00:03:07.564Z,37.07
2018-01-27T00:05:35.171Z,36.23
2018-01-27T00:08:02.841Z,37.43
2018-01-27T00:10:30.438Z,34.23
2018-01-27T00:12:58.078Z,28.27
2018-01-27T00:15:25.828Z,31.70
2018-01-27T00:17:53.433Z,34.90
2018-01-27T00:20:21.109Z,36.70
2018-01-27T00:22:52.447Z,36.03
2018-01-27T00:25:20.079Z,29.13
2018-01-27T00:27:47.689Z,27.63
2018-01-27T00:30:15.310Z,31.10
2018-01-27T00:32:42.933Z,39.00
2018-01-27T00:35:10.565Z,30.73
2018-01-27T00:37:38.183Z,38.23
2018-01-27T00:40:05.827Z,31.23
2018-01-27T00:42:33.560Z,34.10
2018-01-27T00:45:01.811Z,30.30
2018-01-27T00:47:29.441Z,30.20
2018-01-27T00:49:57.074Z,29.50
2018-01-27T00:52:24.712Z,30.87
2018-01-27T00:54:52.348Z,27.53
2018-01-27T00:57:19.954Z,33.43
2018-01-27T00:59:47.557Z,27.27
2018-01-27T01:02:15.178Z,30.37
2018-01-27T01:04:42.785Z,37.47
2018-01-27T01:07:10.409Z,34.03
2018-01-27T01:09:38.001Z,30.63
2018-01-27T01:12:05.594Z,32.60
2018-01-27T01:14:33.223Z,27.00
2018-01-27T01:17:00.818Z,30.00
2018-01-27T01:19:28.447Z,33.00
2018-01-27T01:21:56.044Z,35.50
2018-01-27T01:24:23.667Z,35.30
2018-01-27T01:26:51.311Z,36.40
2018-01-27T01:29:18.908Z,27.67
2018-01-27T01:31:46.527Z,33.63
2018-01-27T01:34:14.123Z,28.80
2018-01-27T01:36:42.057Z,31.57
2018-01-27T01:39:09.659Z,31.47
2018-01-27T01:41:37.250Z,31.03
2018-01-27T01:47:06.112Z,29.07
2018-01-27T01:49:33.745Z,28.90
2018-01-27T01:52:01.340Z,44.27
2018-01-27T01:54:28.966Z,31.97
2018-01-27T01:56:56.559Z,30.63
2018-01-27T01:59:24.183Z,28.27
2018-01-27T02:01:51.775Z,27.97
2018-01-27T02:04:19.387Z,34.90
2018-01-27T02:06:47.040Z,34.80
2018-01-27T02:09:14.662Z,31.77
2018-01-27T02:11:42.275Z,31.17
2018-01-27T02:14:09.954Z,31.87
2018-01-27T02:16:37.840Z,28.93
2018-01-27T02:19:05.439Z,32.33
2018-01-27T02:21:33.039Z,35.53
2018-01-27T02:24:00.656Z,28.27
2018-01-27T02:26:28.271Z,31.97
2018-01-27T02:28:55.887Z,35.70
2018-01-27T02:31:23.482Z,35.00
2018-01-27T02:33:51.152Z,32.47
2018-01-27T02:36:18.750Z,32.67
2018-01-27T02:38:46.349Z,30.23
2018-01-27T02:41:13.968Z,34.10
2018-01-27T02:43:41.564Z,32.00
2018-01-27T02:46:09.213Z,31.10
2018-01-27T02:48:36.823Z,34.23
2018-01-27T02:51:04.652Z,30.77
2018-01-27T02:53:32.263Z,36.80
2018-01-27T02:55:59.921Z,29.50
2018-01-27T02:58:27.552Z,30.00
2018-01-27T03:00:55.231Z,35.83
2018-01-27T03:03:23.191Z,34.50
2018-01-27T03:05:50.785Z,29.33
2018-01-27T03:08:18.384Z,26.37
2018-01-27T03:10:46.003Z,23.60
2018-01-27T03:13:13.643Z,28.73
2018-01-27T03:15:41.411Z,32.73
2018-01-27T03:18:09.026Z,33.27
2018-01-27T03:20:36.635Z,30.23
2018-01-27T03:23:04.270Z,31.63
2018-01-27T03:25:31.865Z,33.87
2018-01-27T03:27:59.489Z,31.50
2018-01-27T03:30:27.089Z,30.93
2018-01-27T03:32:54.675Z,28.10
2018-01-27T03:35:22.297Z,30.23
2018-01-27T03:37:49.895Z,33.83
2018-01-27T03:40:17.789Z,33.63
2018-01-27T03:42:45.381Z,28.97
2018-01-27T03:45:12.971Z,27.80
2018-01-27T03:47:40.586Z,37.87
2018-01-27T03:50:08.198Z,29.13
2018-01-27T03:52:35.826Z,29.70
2018-01-27T03:55:03.415Z,32.30
2018-01-27T03:57:31.287Z,29.53
2018-01-27T03:59:58.883Z,30.27
2018-01-27T04:02:26.503Z,33.07
2018-01-27T04:04:54.165Z,27.83
2018-01-27T04:07:21.765Z,26.67
2018-01-27T04:09:49.384Z,36.83
2018-01-27T04:12:16.973Z,27.53
2018-01-27T04:14:44.573Z,27.93
2018-01-27T04:17:12.184Z,29.90
2018-01-27T04:19:39.788Z,29.50
2018-01-27T04:24:41.280Z,27.73
2018-01-27T04:27:08.927Z,31.23
2018-01-27T04:29:36.535Z,31.20
2018-01-27T04:32:04.136Z,27.00
2018-01-27T04:34:31.778Z,25.00
2018-01-27T04:36:59.374Z,28.30
2018-01-27T04:39:26.988Z,26.77
2018-01-27T04:41:54.577Z,22.97
2018-01-27T04:44:22.463Z,26.60
2018-01-27T04:46:50.059Z,25.17
2018-01-27T04:49:17.653Z,28.60
2018-01-27T04:51:45.275Z,25.80
2018-01-27T04:54:12.880Z,27.67
2018-01-27T04:56:40.495Z,32.03
2018-01-27T04:59:08.093Z,26.70
2018-01-27T05:01:35.738Z,26.77
2018-01-27T05:04:03.343Z,32.03
2018-01-27T05:06:30.932Z,29.83
2018-01-27T05:08:58.564Z,25.80
2018-01-27T05:11:26.288Z,23.20
2018-01-27T05:13:53.918Z,27.90
2018-01-27T05:16:21.506Z,25.83
2018-01-27T05:18:49.118Z,26.03
2018-01-27T05:21:16.742Z,26.37
2018-01-27T05:23:44.335Z,23.70
2018-01-27T05:26:11.946Z,28.13
2018-01-27T05:28:39.531Z,30.50
2018-01-27T05:31:07.161Z,22.93
2018-01-27T05:33:34.759Z,27.10
2018-01-27T05:36:02.387Z,29.40
2018-01-27T05:38:30.012Z,26.53
2018-01-27T05:40:57.613Z,24.83
2018-01-27T05:43:25.230Z,27.40
2018-01-27T05:45:52.823Z,23.53
2018-01-27T05:48:20.453Z,25.37
2018-01-27T05:50:48.045Z,22.70
2018-01-27T05:53:15.665Z,29.03
2018-01-27T05:55:43.285Z,23.23
2018-01-27T05:58:10.882Z,23.70
2018-01-27T06:00:38.519Z,19.77
2018-01-27T06:03:06.124Z,31.20
2018-01-27T06:05:33.743Z,23.50
2018-01-27T06:08:01.332Z,32.93
2018-01-27T06:10:28.929Z,26.00
2018-01-27T06:12:56.552Z,22.10
2018-01-27T06:15:24.143Z,22.80
2018-01-27T06:17:51.757Z,25.30
2018-01-27T06:20:19.346Z,25.40
2018-01-27T06:22:46.935Z,25.90
2018-01-27T06:25:14.543Z,22.13
2018-01-27T06:27:42.136Z,26.90
2018-01-27T06:30:09.768Z,23.13
2018-01-27T06:32:37.359Z,22.30
2018-01-27T06:35:04.960Z,29.27
2018-01-27T06:37:32.571Z,26.10
2018-01-27T06:40:00.173Z,19.53
2018-01-27T06:42:27.796Z,24.83
2018-01-27T06:44:55.396Z,23.80
2018-01-27T06:47:22.995Z,21.03
2018-01-27T06:49:50.619Z,23.77
2018-01-27T06:52:18.225Z,22.87
2018-01-27T06:54:45.859Z,22.23
2018-01-27T06:57:13.457Z,21.37
2018-01-27T06:59:41.044Z,19.77
2018-01-27T07:02:08.663Z,28.10
2018-01-27T07:04:36.250Z,25.13
2018-01-27T07:07:04.204Z,19.03
2018-01-27T07:09:31.805Z,27.23
2018-01-27T07:11:59.395Z,22.90
2018-01-27T07:14:27.004Z,23.23
2018-01-27T07:16:54.592Z,20.47
2018-01-27T07:19:22.223Z,21.97
2018-01-27T07:21:49.810Z,22.47
2018-01-27T07:24:17.414Z,23.37
2018-01-27T07:26:45.065Z,24.53
2018-01-27T07:29:12.652Z,20.70
2018-01-27T07:31:40.275Z,20.07
2018-01-27T07:34:07.866Z,19.20
2018-01-27T07:36:35.454Z,19.30
2018-01-27T07:39:03.065Z,18.03
2018-01-27T07:41:30.784Z,18.00
2018-01-27T07:43:58.616Z,20.27
2018-01-27T07:46:26.218Z,21.77
2018-01-27T07:48:53.813Z,18.57
2018-01-27T07:51:21.427Z,26.33
2018-01-27T07:53:49.023Z,19.67
2018-01-27T07:56:16.670Z,18.87
2018-01-27T07:58:44.273Z,22.53
2018-01-27T08:01:11.879Z,19.00
2018-01-27T08:03:39.493Z,23.80
2018-01-27T08:06:07.100Z,23.30
2018-01-27T08:08:34.730Z,21.50
2018-01-27T08:11:02.320Z,21.60
2018-01-27T08:13:30.149Z,20.83
2018-01-27T08:15:57.746Z,22.43
2018-01-27T08:18:25.340Z,23.10
2018-01-27T08:20:52.943Z,22.53
2018-01-27T08:23:20.556Z,18.10
2018-01-27T08:25:48.173Z,19.13
2018-01-27T08:28:15.771Z,23.90
2018-01-27T08:30:43.424Z,19.40
2018-01-27T08:33:11.015Z,18.10
2018-01-27T08:35:38.619Z,21.53
2018-01-27T08:38:06.232Z,20.60
2018-01-27T08:40:33.836Z,25.53
2018-01-27T08:43:01.445Z,22.90
2018-01-27T08:45:29.051Z,23.37
2018-01-27T08:47:56.697Z,21.63
2018-01-27T08:50:24.287Z,28.03
2018-01-27T08:52:51.884Z,20.87
2018-01-27T08:55:19.516Z,22.60
2018-01-27T08:57:47.129Z,19.60
2018-01-27T09:00:14.743Z,18.07
2018-01-27T09:02:42.335Z,15.60
2018-01-27T09:05:10.079Z,16.30
2018-01-27T09:07:37.661Z,15.53
2018-01-27T09:10:05.288Z,19.30
2018-01-27T09:12:32.900Z,14.40
2018-01-27T09:15:00.662Z,19.77
2018-01-27T09:17:28.406Z,15.57
2018-01-27T09:19:56.000Z,16.20
2018-01-27T09:22:23.640Z,13.13
2018-01-27T09:24:51.226Z,13.87
2018-01-27T09:27:18.848Z,17.63
2018-01-27T09:29:46.471Z,10.57
2018-01-27T09:32:14.079Z,15.03
2018-01-27T09:34:41.709Z,20.80
2018-01-27T09:37:09.333Z,25.50
2018-01-27T09:39:37.307Z,27.17
2018-01-27T09:42:04.914Z,24.53
2018-01-27T09:44:32.511Z,23.40
2018-01-27T09:47:00.128Z,22.43
2018-01-27T09:49:27.725Z,24.07
2018-01-27T09:51:55.332Z,24.70
2018-01-27T09:54:22.939Z,21.47
2018-01-27T09:56:50.924Z,20.17
2018-01-27T09:59:18.522Z,22.07
2018-01-27T10:01:46.113Z,27.17
2018-01-27T10:04:13.729Z,22.13
2018-01-27T10:06:41.319Z,26.47
2018-01-27T10:09:08.946Z,24.23
2018-01-27T10:11:36.565Z,24.10
2018-01-27T10:14:04.161Z,23.17
2018-01-27T10:16:31.787Z,21.17
2018-01-27T10:18:59.388Z,24.27
2018-01-27T10:21:27.152Z,21.70
2018-01-27T10:23:54.772Z,23.07
2018-01-27T10:26:22.363Z,18.40
2018-01-27T10:28:49.985Z,21.13
2018-01-27T10:31:17.587Z,27.97
2018-01-27T10:33:45.227Z,17.87
2018-01-27T10:36:12.824Z,18.37
2018-01-27T10:38:40.484Z,20.70
2018-01-27T10:41:08.078Z,19.13
2018-01-27T10:43:35.684Z,20.97
2018-01-27T10:46:03.303Z,15.03
2018-01-27T10:48:30.919Z,17.70
2018-01-27T10:50:58.831Z,15.67
2018-01-27T10:53:26.426Z,17.40
2018-01-27T10:55:54.015Z,15.40
2018-01-27T10:58:21.883Z,16.60
2018-01-27T11:00:49.467Z,18.00
2018-01-27T11:03:17.091Z,19.07
2018-01-27T11:05:44.691Z,16.00
2018-01-27T11:08:12.303Z,19.67
2018-01-27T11:10:39.930Z,13.73
2018-01-27T11:13:07.547Z,17.20
2018-01-27T11:15:35.178Z,16.50
2018-01-27T11:18:02.771Z,18.97
2018-01-27T11:20:30.385Z,18.43
2018-01-27T11:22:57.968Z,20.43
2018-01-27T11:25:25.617Z,22.00
2018-01-27T11:27:53.221Z,18.47
2018-01-27T11:30:20.808Z,18.40
2018-01-27T11:32:48.448Z,19.70
2018-01-27T11:35:16.036Z,21.00
2018-01-27T11:37:43.660Z,15.93
2018-01-27T11:40:11.314Z,20.00
2018-01-27T11:42:38.938Z,23.00
2018-01-27T11:45:06.527Z,19.70
2018-01-27T11:47:34.125Z,19.33
2018-01-27T11:50:01.736Z,17.70
2018-01-27T11:52:29.335Z,19.47
2018-01-27T11:54:56.984Z,21.33
2018-01-27T11:57:24.584Z,15.93
2018-01-27T11:59:52.306Z,19.57
2018-01-27T12:02:19.907Z,20.80
2018-01-27T12:04:47.487Z,17.30
2018-01-27T12:07:15.112Z,20.30
2018-01-27T12:09:42.708Z,26.47
2018-01-27T12:12:10.332Z,21.97
2018-01-27T12:14:38.161Z,20.47
2018-01-27T12:17:05.794Z,21.73
2018-01-27T12:19:33.391Z,18.27
2018-01-27T12:22:00.979Z,22.13
2018-01-27T12:24:28.601Z,20.93
2018-01-27T12:26:56.194Z,16.60
2018-01-27T12:29:23.825Z,17.33
2018-01-27T12:31:51.419Z,19.87
2018-01-27T12:34:19.323Z,19.27
2018-01-27T12:36:46.925Z,26.90
2018-01-27T12:39:14.545Z,21.83
2018-01-27T12:41:42.186Z,25.43
2018-01-27T12:44:09.804Z,19.07
2018-01-27T12:46:37.424Z,19.47
2018-01-27T12:49:05.898Z,22.63
2018-01-27T12:51:33.732Z,21.53
2018-01-27T12:54:01.326Z,21.23
2018-01-27T12:56:28.940Z,27.57
2018-01-27T12:58:56.562Z,18.67
2018-01-27T13:01:24.154Z,22.87
2018-01-27T13:03:51.799Z,21.27
2018-01-27T13:06:19.405Z,18.93
2018-01-27T13:08:47.059Z,20.33
2018-01-27T13:11:14.668Z,18.30
2018-01-27T13:13:42.260Z,24.90
2018-01-27T13:16:09.906Z,21.67
2018-01-27T13:18:37.493Z,23.87
2018-01-27T13:21:05.152Z,34.07
2018-01-27T13:23:32.735Z,31.03
2018-01-27T13:26:00.685Z,24.33
2018-01-27T13:28:28.290Z,27.27
2018-01-27T13:30:55.883Z,34.33
2018-01-27T13:33:23.499Z,33.47
2018-01-27T13:35:51.117Z,31.47
2018-01-27T13:38:18.750Z,31.87
2018-01-27T13:40:46.350Z,35.10
2018-01-27T13:43:14.119Z,39.40
2018-01-27T13:45:41.732Z,30.77
2018-01-27T13:48:09.328Z,30.03
2018-01-27T13:50:36.991Z,34.17
2018-01-27T13:53:04.556Z,33.20
2018-01-27T13:55:32.223Z,31.43
2018-01-27T13:57:59.820Z,33.60
2018-01-27T14:00:27.445Z,37.33
2018-01-27T14:02:55.039Z,38.33
2018-01-27T14:05:22.968Z,33.17
2018-01-27T14:07:50.566Z,34.17
2018-01-27T14:10:18.176Z,35.63
2018-01-27T14:12:45.968Z,32.13
2018-01-27T14:15:13.561Z,32.97
2018-01-27T14:17:41.172Z,31.27
2018-01-27T14:20:08.753Z,32.37
2018-01-27T14:22:36.595Z,29.83
2018-01-27T14:25:04.192Z,30.63
2018-01-27T14:27:31.830Z,33.47
2018-01-27T14:29:59.448Z,30.30
2018-01-27T14:32:27.062Z,33.33
2018-01-27T14:34:54.674Z,35.80
2018-01-27T14:37:22.265Z,34.50
2018-01-27T14:39:49.883Z,30.63
2018-01-27T14:42:17.491Z,34.33
2018-01-27T14:44:45.088Z,27.10
2018-01-27T14:47:12.713Z,35.30
2018-01-27T14:49:40.307Z,31.07
2018-01-27T14:52:08.052Z,31.60
2018-01-27T14:54:35.640Z,37.53
2018-01-27T14:57:03.275Z,49.53
2018-01-27T14:59:42.903Z,40.60
2018-01-27T15:02:11.504Z,42.00
2018-01-27T15:04:39.118Z,44.63
2018-01-27T15:07:06.723Z,43.20
2018-01-27T15:09:34.343Z,38.90
2018-01-27T15:12:01.936Z,43.30
2018-01-27T15:14:29.574Z,85.93
2018-01-27T15:16:57.164Z,43.47
2018-01-27T15:19:24.902Z,40.33
2018-01-27T15:21:52.534Z,50.27
2018-01-27T15:24:20.133Z,48.50
2018-01-27T15:26:47.747Z,42.10
2018-01-27T15:29:15.340Z,45.10
2018-01-27T15:31:43.018Z,45.10
2018-01-27T15:34:10.624Z,49.33
2018-01-27T15:36:38.546Z,49.77
2018-01-27T15:39:06.153Z,55.60
2018-01-27T15:41:33.742Z,44.77
2018-01-27T15:44:01.370Z,46.40
2018-01-27T15:46:28.975Z,56.10
2018-01-27T15:48:56.655Z,50.40
2018-01-27T15:51:24.249Z,46.40
2018-01-27T15:53:51.855Z,48.57
2018-01-27T15:56:19.448Z,46.03
2018-01-27T15:58:47.309Z,53.20
2018-01-27T16:01:14.908Z,49.57
2018-01-27T16:03:42.500Z,51.60
2018-01-27T16:06:10.155Z,49.93
2018-01-27T16:08:37.757Z,46.70
2018-01-27T16:11:05.373Z,45.27
2018-01-27T16:13:32.980Z,51.53
2018-01-27T16:16:00.591Z,50.63
2018-01-27T16:18:28.203Z,49.83
2018-01-27T16:20:55.809Z,51.60
2018-01-27T16:23:23.429Z,48.10
2018-01-27T16:25:51.065Z,44.90
2018-01-27T16:28:18.836Z,47.60
2018-01-27T16:30:46.432Z,45.47
2018-01-27T16:33:14.020Z,37.13
2018-01-27T16:35:41.714Z,49.70
2018-01-27T16:38:09.345Z,46.30
2018-01-27T16:40:37.046Z,42.73
2018-01-27T16:43:04.639Z,46.67
2018-01-27T16:45:32.267Z,51.30
2018-01-27T16:47:59.872Z,46.07
2018-01-27T16:50:27.482Z,40.90
2018-01-27T16:52:55.131Z,45.70
2018-01-27T16:55:22.752Z,44.63
2018-01-27T16:57:50.375Z,49.00
2018-01-27T17:00:17.979Z,42.83
2018-01-27T17:02:45.797Z,46.03
2018-01-27T17:05:13.412Z,47.33
2018-01-27T17:07:41.014Z,49.80
2018-01-27T17:10:08.631Z,50.20
2018-01-27T17:12:36.222Z,51.80
2018-01-27T17:15:03.868Z,41.87
2018-01-27T17:17:31.464Z,40.40
2018-01-27T17:19:59.079Z,55.73
2018-01-27T17:22:26.711Z,49.53
2018-01-27T17:24:54.315Z,57.97
2018-01-27T17:27:21.935Z,54.90
2018-01-27T17:29:49.525Z,48.57
2018-01-27T17:32:17.334Z,59.60
2018-01-27T17:34:44.925Z,47.40
2018-01-27T17:37:12.529Z,51.17
2018-01-27T17:39:40.152Z,56.17
2018-01-27T17:42:07.793Z,50.37
2018-01-27T17:44:35.409Z,52.30
2018-01-27T17:47:03.005Z,45.13
2018-01-27T17:49:31.081Z,48.93
2018-01-27T17:51:58.710Z,51.03
2018-01-27T17:54:26.362Z,48.13
2018-01-27T17:56:54.025Z,48.33
2018-01-27T17:59:21.622Z,45.70
2018-01-27T18:01:50.161Z,44.97
2018-01-27T18:04:17.859Z,37.73
2018-01-27T18:06:45.628Z,43.90
2018-01-27T18:09:13.238Z,55.27
2018-01-27T18:11:40.859Z,46.47
2018-01-27T18:14:08.470Z,46.87
2018-01-27T18:16:36.072Z,45.97
2018-01-27T18:19:03.691Z,55.20
2018-01-27T18:21:31.292Z,52.10
2018-01-27T18:23:59.155Z,58.23
2018-01-27T18:26:26.837Z,52.27
2018-01-27T18:28:54.428Z,52.33
2018-01-27T18:31:22.245Z,49.77
2018-01-27T18:33:49.875Z,55.70
2018-01-27T18:36:17.488Z,46.80
2018-01-27T18:38:45.091Z,49.33
2018-01-27T18:41:12.952Z,42.70
2018-01-27T18:43:40.549Z,45.20
2018-01-27T18:46:08.154Z,56.70
2018-01-27T18:48:35.770Z,48.03
2018-01-27T18:51:03.369Z,51.90
2018-01-27T18:53:30.981Z,48.70
2018-01-27T18:55:58.576Z,49.07
2018-01-27T18:58:26.207Z,47.47
2018-01-27T19:00:53.797Z,55.90
2018-01-27T19:03:21.400Z,58.43
2018-01-27T19:05:49.035Z,48.43
2018-01-27T19:08:17.643Z,52.57
2018-01-27T19:10:45.264Z,46.23
2018-01-27T19:13:12.854Z,53.00
2018-01-27T19:15:40.679Z,53.50
2018-01-27T19:18:08.272Z,44.20
2018-01-27T19:20:35.868Z,51.90
2018-01-27T19:23:03.531Z,48.67
2018-01-27T19:25:31.128Z,55.53
2018-01-27T19:27:58.808Z,51.53
2018-01-27T19:30:26.449Z,48.63
2018-01-27T19:32:54.220Z,60.30
2018-01-27T19:35:21.914Z,47.63
2018-01-27T19:37:49.509Z,48.17
2018-01-27T19:40:17.141Z,55.50
2018-01-27T19:42:44.739Z,48.00
2018-01-27T19:45:12.355Z,52.93
2018-01-27T19:47:39.955Z,47.07
2018-01-27T19:50:07.852Z,45.37
2018-01-27T19:52:35.999Z,46.60
2018-01-27T19:55:04.017Z,48.50
2018-01-27T19:57:31.652Z,51.20
2018-01-27T19:59:59.259Z,62.23
2018-01-27T20:02:26.883Z,56.97
2018-01-27T20:04:54.475Z,50.47
2018-01-27T20:07:22.607Z,44.83
2018-01-27T20:09:50.206Z,57.37
2018-01-27T20:12:17.830Z,44.70
2018-01-27T20:14:45.447Z,49.00
2018-01-27T20:17:13.055Z,46.10
2018-01-27T20:19:40.719Z,58.83
2018-01-27T20:22:08.310Z,53.37
2018-01-27T20:24:36.150Z,57.03
2018-01-27T20:27:03.757Z,58.03
2018-01-27T20:29:31.355Z,56.83
2018-01-27T20:31:58.987Z,59.23
2018-01-27T20:34:26.584Z,52.37
2018-01-27T20:36:54.212Z,61.17
2018-01-27T20:39:21.817Z,50.47
2018-01-27T20:41:49.459Z,48.57
2018-01-27T20:44:17.053Z,55.17
2018-01-27T20:46:44.646Z,49.30
2018-01-27T20:49:12.281Z,50.30
2018-01-27T20:51:39.873Z,50.17
2018-01-27T20:54:07.495Z,59.17
2018-01-27T20:56:35.084Z,57.67
2018-01-27T20:59:02.716Z,60.67
2018-01-27T21:01:30.306Z,69.33
2018-01-27T21:03:58.115Z,57.23
2018-01-27T21:06:25.820Z,74.25
2018-01-27T21:08:53.423Z,132.33
2018-01-27T21:11:21.131Z,117.57
2018-01-27T21:13:48.819Z,111.07
2018-01-27T21:16:16.537Z,120.65
2018-01-27T21:18:44.209Z,86.50
2018-01-27T21:21:11.914Z,71.25
2018-01-27T21:23:39.594Z,92.82
2018-01-27T21:26:07.288Z,83.25
2018-01-27T21:28:34.997Z,87.78
2018-01-27T21:31:02.724Z,62.55
2018-01-27T21:33:30.408Z,51.42
2018-01-27T21:35:58.084Z,59.72
2018-01-27T21:38:25.791Z,164.23
2018-01-27T21:40:53.489Z,74.68
2018-01-27T21:43:21.201Z,47.38
2018-01-27T21:45:48.890Z,75.78
2018-01-27T21:48:16.544Z,77.77
2018-01-27T21:50:44.221Z,77.95
2018-01-27T21:53:11.984Z,52.90
2018-01-27T21:55:39.689Z,55.30
2018-01-27T21:58:07.395Z,36.05
2018-01-27T22:00:35.104Z,39.70
2018-01-27T22:03:02.779Z,44.80
2018-01-27T22:05:30.440Z,42.60
2018-01-27T22:07:58.133Z,39.05
2018-01-27T22:10:25.801Z,45.05
2018-01-27T22:12:53.436Z,47.43
2018-01-27T22:15:21.120Z,41.83
2018-01-27T22:17:48.827Z,48.35
2018-01-27T22:20:16.496Z,56.63
2018-01-27T22:22:44.324Z,43.60
2018-01-27T22:25:11.995Z,57.10
2018-01-27T22:27:39.692Z,48.60
2018-01-27T22:30:07.432Z,57.80
2018-01-27T22:32:35.121Z,58.63
2018-01-27T22:35:02.975Z,65.50
2018-01-27T22:37:35.247Z,66.18
2018-01-27T22:40:03.193Z,56.45
2018-01-27T22:42:30.897Z,62.65
2018-01-27T22:44:58.579Z,59.88
2018-01-27T22:47:26.276Z,64.43
2018-01-27T22:49:53.954Z,72.53
2018-01-27T22:52:21.651Z,77.65
2018-01-27T22:54:49.250Z,84.63
2018-01-27T22:57:16.887Z,90.57
2018-01-27T22:59:44.568Z,86.87
2018-01-27T23:02:12.171Z,78.57
2018-01-27T23:04:39.942Z,72.93
2018-01-27T23:07:07.583Z,73.93
2018-01-27T23:09:35.211Z,68.30
2018-01-27T23:12:02.806Z,65.80
2018-01-27T23:14:30.452Z,77.67
2018-01-27T23:16:58.065Z,73.50
2018-01-27T23:19:25.684Z,72.27
2018-01-27T23:21:53.321Z,77.77
2018-01-27T23:24:20.937Z,87.70
2018-01-27T23:26:48.569Z,112.67
2018-01-27T23:29:16.173Z,95.10
2018-01-27T23:31:43.827Z,80.77
2018-01-27T23:34:11.425Z,57.20
2018-01-27T23:36:39.039Z,80.30
2018-01-27T23:39:06.663Z,144.13
2018-01-27T23:41:34.640Z,82.00
2018-01-27T23:44:02.253Z,89.93
2018-01-27T23:46:29.843Z,95.83
2018-01-27T23:48:57.480Z,135.57
2018-01-27T23:51:25.151Z,102.05
2018-01-27T23:53:52.756Z,68.23
2018-01-27T23:56:20.388Z,74.23
2018-01-27T23:58:47.990Z,62.23
